createdAt,value
2023-02-08T00:00:59.979Z,13.25
2023-02-08T00:03:29.140Z,10.48
2023-02-08T00:05:56.562Z,12.95
2023-02-08T00:08:23.865Z,11.43
2023-02-08T00:10:51.209Z,11.10
2023-02-08T00:13:18.990Z,10.48
2023-02-08T00:15:46.795Z,12.60
2023-02-08T00:18:14.693Z,11.70
2023-02-08T00:20:43.031Z,13.20
2023-02-08T00:23:10.598Z,12.20
2023-02-08T00:25:38.517Z,11.52
2023-02-08T00:28:08.465Z,11.05
2023-02-08T00:30:36.729Z,11.65
2023-02-08T00:33:04.496Z,12.95
2023-02-08T00:35:32.329Z,16.25
2023-02-08T00:37:59.706Z,10.75
2023-02-08T00:40:28.059Z,10.18
2023-02-08T00:42:55.380Z,10.82
2023-02-08T00:45:23.649Z,11.65
2023-02-08T00:47:50.957Z,11.32
2023-02-08T00:50:18.320Z,10.45
2023-02-08T00:52:45.571Z,12.18
2023-02-08T00:55:12.902Z,11.43
2023-02-08T00:57:40.230Z,13.75
2023-02-08T01:00:09.107Z,11.68
2023-02-08T01:02:39.149Z,12.48
2023-02-08T01:05:07.075Z,9.63
2023-02-08T01:07:37.597Z,11.63
2023-02-08T01:10:06.383Z,10.18
2023-02-08T01:12:33.579Z,11.25
2023-02-08T01:15:00.841Z,10.80
2023-02-08T01:17:28.111Z,9.32
2023-02-08T01:19:55.402Z,11.30
2023-02-08T01:22:22.742Z,12.43
2023-02-08T01:24:50.105Z,9.13
2023-02-08T01:27:17.388Z,10.50
2023-02-08T01:29:44.710Z,12.25
2023-02-08T01:32:11.894Z,11.38
2023-02-08T01:34:39.118Z,9.60
2023-02-08T01:37:06.443Z,10.52
2023-02-08T01:39:33.834Z,10.57
2023-02-08T01:42:01.084Z,12.45
2023-02-08T01:45:25.449Z,10.98
2023-02-08T01:50:26.768Z,9.82
2023-02-08T01:52:54.074Z,9.48
2023-02-08T01:55:26.295Z,8.50
2023-02-08T01:57:56.737Z,9.85
2023-02-08T02:00:24.736Z,9.43
2023-02-08T02:02:55.533Z,9.32
2023-02-08T02:05:29.602Z,9.65
2023-02-08T02:08:00.150Z,9.00
2023-02-08T02:10:33.058Z,9.98
2023-02-08T02:13:21.334Z,8.05
2023-02-08T02:15:50.019Z,9.18
2023-02-08T02:18:25.371Z,10.35
2023-02-08T02:21:34.386Z,9.30
2023-02-08T02:24:39.251Z,9.68
2023-02-08T02:27:33.067Z,8.80
2023-02-08T02:30:32.003Z,8.48
2023-02-08T02:33:20.482Z,9.00
2023-02-08T02:36:02.741Z,10.15
2023-02-08T02:38:49.226Z,7.63
2023-02-08T02:41:39.144Z,8.38
2023-02-08T02:44:15.306Z,9.57
2023-02-08T02:46:50.578Z,7.78
2023-02-08T02:49:23.868Z,8.82
2023-02-08T02:51:58.406Z,8.05
2023-02-08T02:54:39.664Z,8.35
2023-02-08T02:57:11.358Z,9.15
2023-02-08T02:59:39.790Z,9.13
2023-02-08T03:02:07.120Z,8.45
2023-02-08T03:04:34.487Z,10.45
2023-02-08T03:07:13.756Z,9.32
2023-02-08T03:09:40.925Z,7.75
2023-02-08T03:12:29.824Z,8.98
2023-02-08T03:15:08.888Z,9.93
2023-02-08T03:18:05.228Z,9.75
2023-02-08T03:20:39.018Z,7.30
2023-02-08T03:23:24.437Z,6.88
2023-02-08T03:26:20.426Z,7.65
2023-02-08T03:29:08.991Z,7.53
2023-02-08T03:31:45.830Z,7.68
2023-02-08T03:34:36.139Z,8.38
2023-02-08T03:37:15.861Z,6.80
2023-02-08T03:39:45.543Z,7.65
2023-02-08T03:42:17.815Z,6.90
2023-02-08T03:45:00.273Z,8.13
2023-02-08T03:47:32.780Z,7.32
2023-02-08T03:50:05.227Z,6.57
2023-02-08T03:52:33.367Z,7.82
2023-02-08T03:55:11.803Z,12.15
2023-02-08T03:57:48.272Z,7.90
2023-02-08T04:00:18.455Z,7.10
2023-02-08T04:03:06.844Z,8.32
2023-02-08T04:05:34.721Z,7.20
2023-02-08T04:08:02.067Z,8.07
2023-02-08T04:10:29.451Z,7.70
2023-02-08T04:12:56.648Z,7.68
2023-02-08T04:15:23.889Z,6.95
2023-02-08T04:17:51.194Z,7.15
2023-02-08T04:20:18.584Z,7.10
2023-02-08T04:22:45.877Z,7.28
2023-02-08T04:25:13.434Z,6.10
2023-02-08T04:27:41.414Z,6.70
2023-02-08T04:30:09.318Z,6.55
2023-02-08T04:32:36.571Z,7.25
2023-02-08T04:35:04.486Z,6.40
2023-02-08T04:37:32.223Z,7.68
2023-02-08T04:39:59.452Z,6.80
2023-02-08T04:42:26.750Z,6.38
2023-02-08T04:44:54.005Z,7.03
2023-02-08T04:47:21.864Z,8.27
2023-02-08T04:49:49.158Z,6.10
2023-02-08T04:52:16.509Z,6.95
2023-02-08T04:54:43.772Z,7.13
2023-02-08T04:57:14.818Z,6.72
2023-02-08T04:59:42.232Z,7.40
2023-02-08T05:02:09.899Z,7.03
2023-02-08T05:04:37.334Z,7.22
2023-02-08T05:07:04.542Z,7.13
2023-02-08T05:09:31.804Z,7.43
2023-02-08T05:11:59.112Z,7.97
2023-02-08T05:14:26.379Z,7.82
2023-02-08T05:16:53.562Z,6.50
2023-02-08T05:19:20.800Z,6.57
2023-02-08T05:21:48.097Z,5.78
2023-02-08T05:24:15.347Z,7.88
2023-02-08T05:26:42.684Z,7.38
2023-02-08T05:29:10.721Z,5.95
2023-02-08T05:31:38.359Z,7.82
2023-02-08T05:34:05.636Z,6.50
2023-02-08T05:36:32.952Z,5.97
2023-02-08T05:39:00.275Z,6.15
2023-02-08T05:41:27.714Z,6.05
2023-02-08T05:43:55.071Z,5.63
2023-02-08T05:46:22.345Z,7.38
2023-02-08T05:48:49.629Z,6.40
2023-02-08T05:51:16.934Z,7.53
2023-02-08T05:53:45.475Z,8.05
2023-02-08T05:56:12.896Z,7.65
2023-02-08T05:58:40.075Z,7.65
2023-02-08T06:01:12.366Z,6.05
2023-02-08T06:03:40.122Z,7.27
2023-02-08T06:06:07.908Z,5.75
2023-02-08T06:08:35.261Z,6.97
2023-02-08T06:11:02.726Z,6.47
2023-02-08T06:13:31.156Z,7.65
2023-02-08T06:15:58.467Z,6.95
2023-02-08T06:18:25.858Z,6.22
2023-02-08T06:20:54.294Z,9.50
2023-02-08T06:23:22.637Z,7.35
2023-02-08T06:25:50.492Z,7.80
2023-02-08T06:28:17.863Z,9.05
2023-02-08T06:30:45.216Z,9.32
2023-02-08T06:33:15.201Z,11.23
2023-02-08T06:35:52.233Z,8.57
2023-02-08T06:38:20.179Z,13.75
2023-02-08T06:40:48.643Z,10.85
2023-02-08T06:43:16.472Z,9.57
2023-02-08T06:45:47.513Z,13.23
2023-02-08T06:48:15.689Z,11.20
2023-02-08T06:50:43.424Z,12.00
2023-02-08T06:53:10.847Z,10.73
2023-02-08T06:55:38.863Z,11.27
2023-02-08T06:58:06.180Z,12.27
2023-02-08T07:00:33.550Z,13.27
2023-02-08T07:03:00.946Z,14.55
2023-02-08T07:05:28.293Z,12.82
2023-02-08T07:07:55.560Z,14.07
2023-02-08T07:10:22.951Z,16.13
2023-02-08T07:12:50.275Z,11.35
2023-02-08T07:15:17.683Z,19.98
2023-02-08T07:17:44.922Z,19.60
2023-02-08T07:20:12.824Z,21.25
2023-02-08T07:22:40.729Z,17.85
2023-02-08T07:25:09.478Z,19.50
2023-02-08T07:27:36.885Z,23.38
2023-02-08T07:30:05.065Z,21.75
2023-02-08T07:32:34.694Z,27.33
2023-02-08T07:35:02.260Z,28.20
2023-02-08T07:37:29.482Z,28.48
2023-02-08T07:39:56.772Z,28.95
2023-02-08T07:42:24.087Z,26.40
2023-02-08T07:45:06.722Z,26.27
2023-02-08T07:47:34.052Z,27.73
2023-02-08T07:50:01.405Z,29.75
2023-02-08T07:52:29.408Z,28.58
2023-02-08T07:54:56.835Z,30.98
2023-02-08T07:57:24.213Z,32.88
2023-02-08T07:59:53.997Z,35.17
2023-02-08T08:02:21.538Z,37.97
2023-02-08T08:04:48.887Z,37.47
2023-02-08T08:07:16.335Z,37.88
2023-02-08T08:09:43.573Z,35.08
2023-02-08T08:12:10.828Z,40.60
2023-02-08T08:14:38.178Z,35.40
2023-02-08T08:17:05.435Z,37.30
2023-02-08T08:19:32.726Z,34.95
2023-02-08T08:22:00.061Z,32.60
2023-02-08T08:24:27.567Z,31.80
2023-02-08T08:26:54.992Z,30.23
2023-02-08T08:29:22.320Z,23.50
2023-02-08T08:31:49.645Z,25.20
2023-02-08T08:34:17.019Z,23.95
2023-02-08T08:36:44.702Z,21.75
2023-02-08T08:39:12.049Z,20.38
2023-02-08T08:41:39.500Z,20.08
2023-02-08T08:44:06.743Z,20.58
2023-02-08T08:46:34.075Z,22.77
2023-02-08T08:49:01.432Z,28.38
2023-02-08T08:51:28.701Z,18.23
2023-02-08T08:53:55.994Z,21.00
2023-02-08T08:56:23.231Z,25.38
2023-02-08T08:58:50.492Z,20.42
2023-02-08T09:01:17.816Z,22.35
2023-02-08T09:03:45.177Z,18.38
2023-02-08T09:06:12.622Z,19.05
2023-02-08T09:08:40.320Z,23.15
2023-02-08T09:11:13.283Z,17.80
2023-02-08T09:13:41.352Z,17.48
2023-02-08T09:16:12.181Z,18.65
2023-02-08T09:18:40.151Z,20.05
2023-02-08T09:21:09.835Z,16.52
2023-02-08T09:23:37.638Z,16.73
2023-02-08T09:26:07.722Z,15.90
2023-02-08T09:28:35.159Z,17.33
2023-02-08T09:31:18.473Z,17.50
2023-02-08T09:36:14.309Z,19.92
2023-02-08T09:38:43.337Z,17.95
2023-02-08T09:41:42.805Z,17.20
2023-02-08T09:44:13.002Z,16.25
2023-02-08T09:46:45.291Z,19.25
2023-02-08T09:49:21.597Z,14.37
2023-02-08T09:51:58.984Z,16.70
2023-02-08T09:54:28.587Z,14.55
2023-02-08T09:56:58.467Z,16.75
2023-02-08T09:59:29.489Z,19.10
2023-02-08T10:02:02.402Z,15.50
2023-02-08T10:04:52.793Z,17.67
2023-02-08T10:07:20.048Z,15.25
2023-02-08T10:09:47.392Z,20.85
2023-02-08T10:12:32.103Z,15.73
2023-02-08T10:15:28.832Z,13.73
2023-02-08T10:18:26.924Z,17.92
2023-02-08T10:21:13.990Z,12.52
2023-02-08T10:23:52.184Z,13.57
2023-02-08T10:26:45.704Z,14.25
2023-02-08T10:29:34.743Z,12.50
2023-02-08T10:32:23.231Z,18.90
2023-02-08T10:35:03.233Z,12.15
2023-02-08T10:37:36.690Z,13.48
2023-02-08T10:40:24.170Z,12.77
2023-02-08T10:43:03.338Z,12.18
2023-02-08T10:45:45.702Z,12.18
2023-02-08T10:48:29.428Z,13.13
2023-02-08T10:50:56.705Z,11.68
2023-02-08T10:53:24.066Z,10.82
2023-02-08T10:55:51.600Z,14.02
2023-02-08T10:58:25.406Z,12.40
2023-02-08T11:00:54.030Z,10.45
2023-02-08T11:03:24.422Z,11.27
2023-02-08T11:05:52.451Z,11.48
2023-02-08T11:08:24.766Z,12.60
2023-02-08T11:11:02.747Z,10.83
2023-02-08T11:13:36.753Z,11.95
2023-02-08T11:16:07.678Z,15.60
2023-02-08T11:18:41.017Z,12.32
2023-02-08T11:21:20.860Z,11.38
2023-02-08T11:23:51.945Z,10.85
2023-02-08T11:26:25.012Z,13.05
2023-02-08T11:29:25.834Z,12.00
2023-02-08T11:31:56.536Z,9.43
2023-02-08T11:34:29.923Z,10.55
2023-02-08T11:36:59.124Z,9.98
2023-02-08T11:39:38.452Z,10.50
2023-02-08T11:42:07.650Z,13.00
2023-02-08T11:44:41.993Z,11.20
2023-02-08T11:47:15.073Z,13.05
2023-02-08T11:49:45.053Z,11.85
2023-02-08T11:52:26.888Z,10.95
2023-02-08T11:54:55.731Z,10.15
2023-02-08T11:57:27.888Z,13.68
2023-02-08T12:00:20.091Z,11.15
2023-02-08T12:02:50.721Z,11.15
2023-02-08T12:05:28.950Z,10.13
2023-02-08T12:08:18.456Z,11.57
2023-02-08T12:10:55.266Z,9.85
2023-02-08T12:13:42.799Z,19.48
2023-02-08T12:16:34.163Z,9.65
2023-02-08T12:19:19.367Z,10.60
2023-02-08T12:22:13.704Z,7.88
2023-02-08T12:24:49.342Z,9.45
2023-02-08T12:27:34.374Z,10.18
2023-02-08T12:30:58.065Z,11.65
2023-02-08T12:34:15.159Z,8.77
2023-02-08T12:37:19.504Z,10.02
2023-02-08T12:40:17.067Z,9.15
2023-02-08T12:42:56.543Z,9.18
2023-02-08T12:45:56.203Z,10.52
2023-02-08T12:48:35.277Z,12.52
2023-02-08T12:51:12.703Z,10.02
2023-02-08T12:53:48.489Z,12.88
2023-02-08T12:56:32.813Z,9.52
2023-02-08T12:59:13.075Z,9.98
2023-02-08T13:01:45.074Z,8.32
2023-02-08T13:04:23.075Z,10.30
2023-02-08T13:06:56.865Z,7.80
2023-02-08T13:09:35.259Z,7.05
2023-02-08T13:12:06.483Z,12.30
2023-02-08T13:14:43.294Z,9.85
2023-02-08T13:17:21.290Z,8.68
2023-02-08T13:20:03.255Z,9.57
2023-02-08T13:22:40.574Z,8.80
2023-02-08T13:25:25.339Z,9.55
2023-02-08T13:27:53.370Z,8.05
2023-02-08T13:30:22.590Z,11.27
2023-02-08T13:32:52.374Z,10.50
2023-02-08T13:35:25.289Z,8.68
2023-02-08T13:38:14.968Z,11.60
2023-02-08T13:40:43.287Z,10.23
2023-02-08T13:43:39.902Z,9.82
2023-02-08T13:46:08.744Z,8.85
2023-02-08T13:48:49.634Z,8.55
2023-02-08T13:51:29.074Z,11.35
2023-02-08T13:53:56.319Z,9.80
2023-02-08T13:56:46.733Z,11.50
2023-02-08T13:59:34.221Z,11.52
2023-02-08T14:02:18.863Z,9.60
2023-02-08T14:04:52.089Z,8.25
2023-02-08T14:09:57.953Z,7.53
2023-02-08T14:12:32.661Z,8.05
2023-02-08T14:15:16.695Z,6.80
2023-02-08T14:17:49.673Z,7.63
2023-02-08T14:20:30.712Z,10.18
2023-02-08T14:23:04.805Z,9.15
2023-02-08T14:25:46.127Z,11.05
2023-02-08T14:28:25.706Z,9.15
2023-02-08T14:30:55.979Z,7.85
2023-02-08T14:33:34.021Z,11.57
2023-02-08T14:36:05.570Z,9.55
2023-02-08T14:38:51.627Z,7.18
2023-02-08T14:41:45.472Z,9.95
2023-02-08T14:44:48.084Z,7.15
2023-02-08T14:47:36.993Z,8.13
2023-02-08T14:50:38.829Z,8.23
2023-02-08T14:53:21.518Z,9.85
2023-02-08T14:55:52.413Z,9.20
2023-02-08T14:58:28.583Z,7.28
2023-02-08T15:01:00.623Z,8.02
2023-02-08T15:03:31.686Z,8.00
2023-02-08T15:05:58.885Z,8.90
2023-02-08T15:08:27.377Z,7.75
2023-02-08T15:10:55.734Z,6.68
2023-02-08T15:13:24.863Z,6.88
2023-02-08T15:15:57.444Z,9.65
2023-02-08T15:18:32.006Z,8.80
2023-02-08T15:21:06.017Z,8.25
2023-02-08T15:23:33.409Z,9.98
2023-02-08T15:26:03.519Z,8.27
2023-02-08T15:28:34.945Z,7.07
2023-02-08T15:31:09.786Z,7.00
2023-02-08T15:33:42.848Z,7.85
2023-02-08T15:36:32.779Z,9.93
2023-02-08T15:39:04.702Z,7.20
2023-02-08T15:41:38.117Z,8.05
2023-02-08T15:44:29.131Z,12.20
2023-02-08T15:47:00.105Z,11.18
2023-02-08T15:49:32.176Z,9.13
2023-02-08T15:52:00.582Z,10.35
2023-02-08T15:54:28.154Z,9.70
2023-02-08T15:57:19.061Z,8.32
2023-02-08T15:59:47.962Z,7.07
2023-02-08T16:02:24.181Z,7.38
2023-02-08T16:04:51.665Z,8.25
2023-02-08T16:07:25.186Z,7.82
2023-02-08T16:09:53.407Z,7.57
2023-02-08T16:12:23.718Z,9.95
2023-02-08T16:14:52.978Z,8.07
2023-02-08T16:17:33.114Z,7.75
2023-02-08T16:20:00.407Z,7.90
2023-02-08T16:22:33.105Z,8.57
2023-02-08T16:25:34.030Z,9.50
2023-02-08T16:28:03.139Z,7.50
2023-02-08T16:30:30.907Z,9.27
2023-02-08T16:33:04.953Z,10.07
2023-02-08T16:35:33.627Z,10.20
2023-02-08T16:38:02.777Z,17.80
2023-02-08T16:40:32.685Z,10.00
2023-02-08T16:43:23.474Z,8.55
2023-02-08T16:46:12.441Z,9.95
2023-02-08T16:48:42.243Z,8.60
2023-02-08T16:51:21.780Z,10.85
2023-02-08T16:53:51.811Z,10.07
2023-02-08T16:56:19.294Z,8.95
2023-02-08T16:58:46.682Z,10.18
2023-02-08T17:01:14.725Z,10.27
2023-02-08T17:03:42.516Z,10.55
2023-02-08T17:06:21.857Z,9.32
2023-02-08T17:08:49.339Z,9.00
2023-02-08T17:11:16.674Z,11.25
2023-02-08T17:13:43.964Z,8.90
2023-02-08T17:16:22.712Z,9.85
2023-02-08T17:18:50.453Z,10.75
2023-02-08T17:21:17.799Z,9.00
2023-02-08T17:23:46.031Z,9.68
2023-02-08T17:26:28.941Z,7.90
2023-02-08T17:28:59.343Z,10.65
2023-02-08T17:31:31.376Z,8.55
2023-02-08T17:34:04.266Z,8.13
2023-02-08T17:36:34.368Z,14.00
2023-02-08T17:39:02.558Z,10.73
2023-02-08T17:41:29.892Z,8.85
2023-02-08T17:43:57.997Z,9.48
2023-02-08T17:46:27.946Z,10.23
2023-02-08T17:48:55.387Z,10.05
2023-02-08T17:51:24.580Z,9.20
2023-02-08T17:53:52.387Z,10.23
2023-02-08T17:56:23.064Z,13.07
2023-02-08T17:58:53.756Z,8.32
2023-02-08T18:01:24.142Z,8.73
2023-02-08T18:03:52.402Z,10.05
2023-02-08T18:06:20.098Z,9.50
2023-02-08T18:08:47.310Z,9.15
2023-02-08T18:11:20.265Z,9.60
2023-02-08T18:13:48.655Z,10.07
2023-02-08T18:16:19.173Z,9.70
2023-02-08T18:18:46.554Z,9.73
2023-02-08T18:21:16.791Z,9.65
2023-02-08T18:23:45.152Z,11.05
2023-02-08T18:26:17.541Z,7.40
2023-02-08T18:28:44.961Z,10.10
2023-02-08T18:31:15.652Z,11.15
2023-02-08T18:33:43.953Z,10.23
2023-02-08T18:36:12.514Z,10.43
2023-02-08T18:38:47.388Z,9.00
2023-02-08T18:41:18.669Z,9.15
2023-02-08T18:43:47.594Z,7.20
2023-02-08T18:46:18.574Z,9.98
2023-02-08T18:48:46.840Z,10.10
2023-02-08T18:51:16.380Z,11.35
2023-02-08T18:53:46.794Z,8.40
2023-02-08T18:56:14.787Z,7.95
2023-02-08T18:58:43.120Z,9.93
2023-02-08T19:01:16.357Z,8.18
2023-02-08T19:03:44.905Z,8.95
2023-02-08T19:06:14.928Z,8.30
2023-02-08T19:08:44.223Z,8.50
2023-02-08T19:11:18.688Z,8.80
2023-02-08T19:13:46.510Z,12.38
2023-02-08T19:16:15.497Z,9.90
2023-02-08T19:18:44.410Z,8.20
2023-02-08T19:21:14.676Z,8.85
2023-02-08T19:23:41.897Z,7.32
2023-02-08T19:26:18.697Z,10.13
2023-02-08T19:28:46.266Z,8.93
2023-02-08T19:31:16.616Z,8.57
2023-02-08T19:33:46.170Z,11.15
2023-02-08T19:36:16.253Z,9.20
2023-02-08T19:38:44.477Z,9.80
2023-02-08T19:41:25.115Z,8.73
2023-02-08T19:43:52.835Z,9.20
2023-02-08T19:46:22.794Z,10.50
2023-02-08T19:48:52.451Z,12.77
2023-02-08T19:51:19.863Z,12.32
2023-02-08T19:53:47.584Z,13.27
2023-02-08T19:56:17.238Z,9.77
2023-02-08T19:58:45.814Z,8.68
2023-02-08T20:01:16.690Z,10.35
2023-02-08T20:03:44.886Z,9.65
2023-02-08T20:06:21.263Z,10.13
2023-02-08T20:08:51.559Z,9.82
2023-02-08T20:11:24.284Z,12.32
2023-02-08T20:13:52.950Z,9.30
2023-02-08T20:16:22.187Z,11.63
2023-02-08T20:18:50.304Z,10.88
2023-02-08T20:21:17.887Z,9.30
2023-02-08T20:23:46.088Z,11.40
2023-02-08T20:26:15.456Z,11.63
2023-02-08T20:28:45.500Z,8.65
2023-02-08T20:31:21.511Z,10.45
2023-02-08T20:33:49.764Z,8.07
2023-02-08T20:36:26.891Z,8.57
2023-02-08T20:38:56.100Z,9.85
2023-02-08T20:41:25.154Z,12.43
2023-02-08T20:43:53.278Z,8.85
2023-02-08T20:46:31.001Z,9.60
2023-02-08T20:49:00.549Z,8.27
2023-02-08T20:51:29.678Z,9.30
2023-02-08T20:53:58.479Z,8.95
2023-02-08T20:56:32.190Z,7.63
2023-02-08T20:59:05.433Z,7.65
2023-02-08T21:01:34.733Z,8.13
2023-02-08T21:04:04.476Z,7.90
2023-02-08T21:06:35.456Z,7.50
2023-02-08T21:09:07.101Z,10.07
2023-02-08T21:11:35.130Z,7.25
2023-02-08T21:14:03.148Z,8.18
2023-02-08T21:16:30.940Z,7.20
2023-02-08T21:18:58.871Z,8.30
2023-02-08T21:21:28.103Z,8.20
2023-02-08T21:23:57.876Z,7.85
2023-02-08T21:26:26.065Z,7.53
2023-02-08T21:28:55.432Z,8.90
2023-02-08T21:31:24.054Z,8.07
2023-02-08T21:33:52.742Z,7.82
2023-02-08T21:36:23.404Z,7.97
2023-02-08T21:38:51.358Z,9.13
2023-02-08T21:41:22.203Z,7.97
2023-02-08T21:43:51.193Z,7.32
2023-02-08T21:46:18.736Z,9.43
2023-02-08T21:49:06.341Z,8.88
2023-02-08T21:51:52.536Z,8.02
2023-02-08T21:54:31.436Z,9.07
2023-02-08T21:57:00.000Z,10.00
2023-02-08T21:59:28.521Z,9.05
2023-02-08T22:01:55.973Z,7.65
2023-02-08T22:04:23.456Z,8.15
2023-02-08T22:06:50.836Z,6.78
2023-02-08T22:09:19.838Z,6.75
2023-02-08T22:11:50.292Z,7.10
2023-02-08T22:14:17.651Z,7.10
2023-02-08T22:16:44.947Z,6.93
2023-02-08T22:19:12.226Z,8.05
2023-02-08T22:21:39.563Z,7.95
2023-02-08T22:24:07.074Z,7.35
2023-02-08T22:26:34.858Z,6.70
2023-02-08T22:29:02.200Z,6.45
2023-02-08T22:31:29.719Z,7.10
2023-02-08T22:33:57.078Z,7.50
2023-02-08T22:36:24.346Z,8.48
2023-02-08T22:38:51.582Z,8.05
2023-02-08T22:41:19.254Z,8.32
2023-02-08T22:43:46.691Z,7.18
2023-02-08T22:46:14.031Z,8.55
2023-02-08T22:48:41.627Z,7.88
2023-02-08T22:51:11.228Z,9.07
2023-02-08T22:53:38.514Z,11.98
2023-02-08T22:56:06.046Z,6.55
2023-02-08T22:58:33.422Z,7.10
2023-02-08T23:01:00.785Z,7.18
2023-02-08T23:03:28.135Z,7.10
2023-02-08T23:05:55.395Z,7.60
2023-02-08T23:08:23.198Z,6.65
2023-02-08T23:10:58.876Z,7.60
2023-02-08T23:13:27.481Z,8.30
2023-02-08T23:15:54.857Z,7.03
2023-02-08T23:18:23.113Z,8.77
2023-02-08T23:20:50.421Z,8.07
2023-02-08T23:23:18.744Z,8.75
2023-02-08T23:25:46.012Z,7.85
2023-02-08T23:28:13.816Z,6.45
2023-02-08T23:30:43.122Z,8.23
2023-02-08T23:33:10.477Z,10.07
2023-02-08T23:35:41.531Z,6.93
2023-02-08T23:38:09.404Z,9.65
2023-02-08T23:40:36.814Z,7.75
2023-02-08T23:43:04.117Z,10.57
2023-02-08T23:45:31.536Z,8.23
2023-02-08T23:47:59.140Z,7.40
2023-02-08T23:50:26.411Z,6.97
2023-02-08T23:52:56.556Z,7.43
2023-02-08T23:55:24.502Z,6.68
2023-02-08T23:57:51.896Z,9.30
